Keystone Islands, Florida
Current Conditions -  °F | °C
As of 12:53 AM on Friday 31 Oct 2014 (Local Time) from KOPF Reporting Station
Clear Clear  
Wind Chill: 74°   Ceiling: Unl
Heat Index: 74°   Visibility: 10mi
Dew Point: 68°   Wind: 6mph
Humidity: 82%   Direction: 240°WSW
Pressure: 29.89"   Gusts: NA
Location:  25.8824°N, 80.1808°W
Report Text: KOPF 310453Z AUTO 24005KT 10SM CLR 23/20 A2989 RMK AO2 SLP122 T02330200 403060206
Loading
Personal Weather Stations






























Interactive Weather Map
Tropical Storm Tracking
New forecast layout! Learn more

10-Day Weather Forecast

Advertisements
Track Severe Weather on mobile